Airfield :
LOGIN :

Register | Disclaimer

   EN    FR    IT 

 










Legend :    VFR   Marginal VFR   IFR   Intensive IFR   Very Intensive IFR
Visi :
Ceiling :
>= 8 km
>= 3000ft
5 to 8 km
1000 to 3000 ft
1500m to 5 km
500 to 1000 ft
800 to 1500m
200 to 500 ft
< 800m
< 200 ft
Symbols :   Thunderstorms  Fog  Heavy snow  Heavy precipitations  Wind > 20 kt
SIGMETs :     Misc.  Thunderstorms  Icing  Turbulence  Mountain Waves  Volcanic Ashes






- Airport Elevation : 13 ft
- IATA code : SNR


LFRZ - St-Nazaire

CURRENT METAR :
  • 270830Z AUTO 28010KT 4700 BR OVC006 11/10 Q1018 TEMPO 2000 -RADZ OVC002

EXPIRED METARs :
  • 270800Z AUTO 28009KT 4800 BR OVC006 11/10 Q1017 TEMPO 2000 -RADZ OVC002
  • 270730Z AUTO 27009KT 9999 OVC004 11/10 Q1017 TEMPO 2000 -RADZ
  • 270700Z AUTO 28010KT 9999 OVC007 11/10 Q1017 TEMPO 2000 -RADZ VV///
  • 270630Z AUTO 28010KT 9999 OVC006 11/10 Q1016 TEMPO 2000 -RADZ VV///
  • 270600Z AUTO 28009KT 250V310 9999 OVC005 11/10 Q1016 TEMPO 0500 FG VV///

TAF TAF LFRZ
Valid from the 27 at 06:00 until the 28 at 06:00 UTC


270500Z 2706/2806 28007KT 9999 BKN006
TEMPO 2706/2806 2000 -RADZ OVC002
PROB30
TEMPO 2706/2708 0500 FG VV///
TEMPO 2804/2806 25015G25KT



MET'MAP, your aeronautical weather chart ! - Copyright ORBIFLY December 2007 - Disclaimer

ORBIFLY MET'MAP TEAM :

Programming & Development : Alexandra Zaïnal
Concept & original design : Baudouin d'Aumeries
Assistance for programming : Marc-Olivier Méhu
Technical & hardware support : Manuel Goepfert

Contact : metmap@orbifly.com




SOURCES & CREDITS :

   NOAA